Time;durP1;ratioP1;P1;durP2;ratioP2;P2;SDS_P1;SDS_P2;PMS_P1;PMS_P2;Temp;Humidity;BMP_temperature;BMP_pressure;BME280_temperature;BME280_humidity;BME280_pressure;Samples;Min_cycle;Max_cycle;Signal;HPM_P1;HPM_P2
2022/12/18 00:00:46;;;;;;;13.07;3.13;;;-5.20;99.90;;;;;;5042377;28;20029;-82
2022/12/18 00:03:15;;;;;;;3.75;2.63;;;-5.30;99.90;;;;;;5045085;28;20477;-80
2022/12/18 00:05:51;;;;;;;5.53;3.13;;;-5.30;99.90;;;;;;5043866;28;20512;-82
2022/12/18 00:08:17;;;;;;;5.35;3.05;;;-5.30;99.90;;;;;;5048007;28;20090;-82
2022/12/18 00:10:43;;;;;;;6.47;3.40;;;-5.30;99.90;;;;;;5054221;28;20052;-82
2022/12/18 00:13:09;;;;;;;6.03;3.25;;;-5.20;99.90;;;;;;5039734;28;20039;-81
2022/12/18 00:15:36;;;;;;;7.03;2.90;;;-5.30;99.90;;;;;;5047070;28;20025;-82
2022/12/18 00:18:01;;;;;;;2.10;2.00;;;-5.30;99.90;;;;;;5050703;28;20029;-82
2022/12/18 00:20:27;;;;;;;4.90;2.80;;;-5.40;99.90;;;;;;5041295;28;20037;-82
2022/12/18 00:22:53;;;;;;;7.60;2.40;;;-5.40;99.90;;;;;;5041661;28;20034;-81
2022/12/18 00:25:19;;;;;;;8.88;2.67;;;-5.40;99.90;;;;;;5044449;28;20017;-82
2022/12/18 00:27:44;;;;;;;4.75;2.75;;;-5.50;99.90;;;;;;5053158;28;20094;-82
2022/12/18 00:30:11;;;;;;;3.25;2.40;;;-5.50;99.90;;;;;;5046505;28;20116;-82
2022/12/18 00:32:37;;;;;;;6.03;2.78;;;-5.50;99.90;;;;;;5042443;28;20056;-82
2022/12/18 00:35:03;;;;;;;5.78;2.60;;;-5.50;99.90;;;;;;5046020;28;20030;-82
2022/12/18 00:37:28;;;;;;;3.47;2.40;;;-5.60;99.90;;;;;;5048533;28;20352;-83
2022/12/18 00:39:54;;;;;;;2.85;2.65;;;-5.50;99.90;;;;;;5051843;28;20564;-81
2022/12/18 00:45:29;;;;;;;4.05;2.33;;;-5.60;99.90;;;;;;5064110;28;20032;-82
2022/12/18 00:47:55;;;;;;;4.20;2.50;;;-5.60;99.90;;;;;;5066952;28;20089;-82
2022/12/18 00:50:22;;;;;;;4.07;2.47;;;-5.50;99.90;;;;;;5064963;28;20401;-81
2022/12/18 00:52:48;;;;;;;4.43;2.72;;;-5.40;99.90;;;;;;5046661;28;20489;-82
2022/12/18 00:55:14;;;;;;;2.83;2.33;;;-5.50;99.90;;;;;;5040505;28;20029;-81
2022/12/18 00:57:41;;;;;;;6.57;3.17;;;-5.50;99.90;;;;;;5045382;28;20146;-81
2022/12/18 01:00:08;;;;;;;6.13;3.30;;;-5.50;99.90;;;;;;5050090;28;20029;-82
2022/12/18 01:02:34;;;;;;;4.18;2.40;;;-5.50;99.90;;;;;;5048097;28;20033;-82
2022/12/18 01:04:59;;;;;;;8.43;2.88;;;-5.50;99.90;;;;;;5048196;28;20127;-82
2022/12/18 01:07:25;;;;;;;9.00;4.22;;;-5.50;99.90;;;;;;5046696;28;20036;-82
2022/12/18 01:09:50;;;;;;;12.30;3.17;;;-5.50;99.90;;;;;;5052640;28;20047;-82
2022/12/18 01:12:16;;;;;;;13.65;2.70;;;-5.50;99.90;;;;;;5049339;28;20478;-82
2022/12/18 01:14:42;;;;;;;4.60;2.72;;;-5.60;99.90;;;;;;5054755;28;20083;-80
2022/12/18 01:17:08;;;;;;;3.15;2.45;;;-5.60;99.90;;;;;;5043562;28;20032;-81
2022/12/18 01:19:34;;;;;;;6.05;2.45;;;-5.70;99.90;;;;;;5049705;28;20025;-82
2022/12/18 01:21:59;;;;;;;2.90;2.33;;;-5.70;99.90;;;;;;5046782;28;20437;-82
2022/12/18 01:24:25;;;;;;;5.00;2.25;;;-5.70;99.90;;;;;;5050447;28;20025;-82
2022/12/18 01:26:52;;;;;;;3.70;2.53;;;-5.70;99.90;;;;;;5043424;28;20576;-79
2022/12/18 01:29:17;;;;;;;4.18;2.38;;;-5.80;99.90;;;;;;5041511;28;20127;-80
2022/12/18 01:31:43;;;;;;;6.32;2.70;;;-5.70;99.90;;;;;;5043416;28;20305;-82
2022/12/18 01:34:10;;;;;;;4.82;2.53;;;-5.70;99.90;;;;;;5042903;28;20083;-81
2022/12/18 01:36:37;;;;;;;4.45;2.28;;;-5.70;99.90;;;;;;5051891;28;20024;-82
2022/12/18 01:39:21;;;;;;;2.97;2.65;;;-5.80;99.90;;;;;;5046191;28;20202;-82
2022/12/18 01:42:02;;;;;;;8.57;2.20;;;-5.80;99.90;;;;;;5043093;28;20477;-82
2022/12/18 01:44:58;;;;;;;4.22;2.30;;;-5.80;99.90;;;;;;5048633;28;20029;-82
2022/12/18 01:47:32;;;;;;;5.47;2.65;;;-5.80;99.90;;;;;;5038438;28;20111;-82
2022/12/18 01:50:02;;;;;;;7.88;2.78;;;-5.80;99.90;;;;;;5043816;28;20033;-80
2022/12/18 01:52:30;;;;;;;6.68;2.30;;;-5.80;99.90;;;;;;5048762;28;20548;-82
2022/12/18 01:54:56;;;;;;;2.58;2.38;;;-5.80;99.90;;;;;;5048539;28;20060;-82
2022/12/18 01:57:24;;;;;;;4.93;2.30;;;-5.80;99.90;;;;;;5040371;28;20491;-82
2022/12/18 01:59:53;;;;;;;3.97;2.50;;;-5.80;99.90;;;;;;5044628;28;20385;-82
2022/12/18 02:02:20;;;;;;;5.85;2.55;;;-5.80;99.90;;;;;;5046115;28;20789;-82
2022/12/18 02:04:46;;;;;;;4.88;2.53;;;-5.80;99.90;;;;;;5046753;28;20418;-82
2022/12/18 02:07:47;;;;;;;8.68;2.60;;;-5.80;99.90;;;;;;5049300;28;20033;-82
2022/12/18 02:10:17;;;;;;;5.80;2.92;;;-5.70;99.90;;;;;;5044166;28;20125;-82
2022/12/18 02:13:02;;;;;;;2.80;2.10;;;-5.70;99.90;;;;;;5045227;28;20029;-80
2022/12/18 02:16:05;;;;;;;2.55;2.35;;;-5.70;99.90;;;;;;5046316;28;20076;-81
2022/12/18 02:18:36;;;;;;;5.18;2.80;;;-5.70;99.90;;;;;;5047712;28;20028;-82
2022/12/18 02:21:20;;;;;;;2.85;2.30;;;-5.70;99.90;;;;;;5045214;28;20035;-81
2022/12/18 02:24:03;;;;;;;9.25;2.80;;;-5.70;99.90;;;;;;5042042;28;20432;-82
2022/12/18 02:26:49;;;;;;;7.53;2.75;;;-5.70;99.90;;;;;;5036833;28;20102;-82
2022/12/18 02:29:20;;;;;;;10.02;2.75;;;-5.80;99.90;;;;;;5053631;28;20050;-82
2022/12/18 02:31:52;;;;;;;7.75;2.45;;;-5.80;99.90;;;;;;5046777;28;20029;-82
2022/12/18 02:34:19;;;;;;;2.75;2.55;;;-5.80;99.90;;;;;;5053336;28;20033;-82
2022/12/18 02:36:47;;;;;;;8.68;3.10;;;-5.80;99.90;;;;;;5050823;28;20094;-82
2022/12/18 02:39:15;;;;;;;3.00;2.63;;;-5.80;99.90;;;;;;5047270;28;20112;-82
2022/12/18 02:41:41;;;;;;;9.02;2.50;;;-5.70;99.90;;;;;;5053018;28;20473;-82
2022/12/18 02:44:10;;;;;;;3.75;2.75;;;-5.80;99.90;;;;;;5044752;28;20436;-80
2022/12/18 02:46:46;;;;;;;4.57;2.60;;;-5.70;99.90;;;;;;5050351;28;20104;-81
2022/12/18 02:49:22;;;;;;;3.72;2.63;;;-5.70;99.90;;;;;;5047881;28;20056;-82
2022/12/18 02:52:14;;;;;;;5.50;2.78;;;-5.70;99.90;;;;;;5042662;28;20033;-82
2022/12/18 02:54:57;;;;;;;9.50;3.40;;;-5.80;99.90;;;;;;5038446;28;20037;-82
2022/12/18 02:57:45;;;;;;;4.40;2.88;;;-5.80;99.90;;;;;;5048525;28;20028;-82
2022/12/18 03:00:22;;;;;;;2.42;2.20;;;-5.70;99.90;;;;;;5046699;28;20017;-82
2022/12/18 03:03:07;;;;;;;8.88;2.75;;;-5.70;99.90;;;;;;5052290;28;20033;-82
2022/12/18 03:05:37;;;;;;;10.45;3.88;;;-5.70;99.90;;;;;;5045715;28;20041;-82
2022/12/18 03:08:08;;;;;;;6.88;2.67;;;-5.80;99.90;;;;;;5036253;28;20077;-82
2022/12/18 03:10:45;;;;;;;10.68;2.83;;;-5.90;99.90;;;;;;5046303;28;20470;-82
2022/12/18 03:13:18;;;;;;;8.90;2.85;;;-5.90;99.90;;;;;;5055970;28;20029;-81
2022/12/18 03:15:50;;;;;;;6.05;2.75;;;-5.90;99.90;;;;;;5044791;28;20064;-82
2022/12/18 03:18:23;;;;;;;5.32;2.60;;;-6.00;99.90;;;;;;5050414;28;20021;-82
2022/12/18 03:20:51;;;;;;;7.00;3.28;;;-6.00;99.90;;;;;;5054233;28;20031;-82
2022/12/18 03:23:22;;;;;;;12.77;3.30;;;-6.10;99.90;;;;;;5053575;28;20025;-82
2022/12/18 03:25:52;;;;;;;7.78;2.75;;;-6.10;99.90;;;;;;5043526;28;20780;-82
2022/12/18 03:28:22;;;;;;;12.95;3.58;;;-6.10;99.90;;;;;;5049293;28;20136;-82
2022/12/18 03:30:53;;;;;;;6.22;3.22;;;-6.10;99.90;;;;;;5044047;28;20461;-82
2022/12/18 03:33:29;;;;;;;6.47;2.97;;;-6.10;99.90;;;;;;5046659;28;20525;-82
2022/12/18 03:35:55;;;;;;;6.88;3.10;;;-6.10;99.90;;;;;;5049304;28;20026;-82
2022/12/18 03:38:21;;;;;;;3.53;2.88;;;-6.10;99.90;;;;;;5050734;28;20047;-83
2022/12/18 03:41:03;;;;;;;5.78;2.83;;;-6.00;99.90;;;;;;5052144;28;20025;-82
2022/12/18 03:43:43;;;;;;;3.90;2.80;;;-6.00;99.90;;;;;;5054011;28;20465;-82
2022/12/18 03:46:29;;;;;;;8.55;2.90;;;-6.00;99.90;;;;;;5051702;28;20036;-82
2022/12/18 03:49:21;;;;;;;;;;;-5.90;99.90;;;;;;5047203;28;20045;-82
2022/12/18 03:52:02;;;;;;;5.95;2.67;;;-5.90;99.90;;;;;;5057653;28;19961;-82
2022/12/18 03:54:30;;;;;;;4.50;2.78;;;-5.80;99.90;;;;;;5052190;28;20025;-82
2022/12/18 03:57:04;;;;;;;5.13;2.90;;;-5.80;99.90;;;;;;5051321;28;20045;-81
2022/12/18 03:59:31;;;;;;;5.00;2.75;;;-5.80;99.90;;;;;;5053674;28;20025;-82
2022/12/18 04:01:59;;;;;;;3.60;2.42;;;-5.80;99.90;;;;;;5050809;28;20055;-80
2022/12/18 04:04:26;;;;;;;6.00;2.92;;;-5.90;99.90;;;;;;5048824;28;20078;-82
2022/12/18 04:06:52;;;;;;;4.47;2.58;;;-5.90;99.90;;;;;;5048272;28;20045;-82
2022/12/18 04:09:19;;;;;;;2.65;2.45;;;-5.90;99.90;;;;;;5049931;28;20494;-82
2022/12/18 04:11:46;;;;;;;7.47;3.08;;;-6.00;99.90;;;;;;5045480;28;20424;-82
2022/12/18 04:14:12;;;;;;;2.60;2.40;;;-6.10;99.90;;;;;;5051279;28;20048;-80
2022/12/18 04:16:38;;;;;;;3.40;2.40;;;-6.10;99.90;;;;;;5046072;28;20025;-82
2022/12/18 04:19:04;;;;;;;4.90;3.05;;;-6.20;99.90;;;;;;5060224;28;20032;-82
2022/12/18 04:21:30;;;;;;;6.93;3.17;;;-6.20;99.90;;;;;;5052288;28;20033;-83
2022/12/18 04:23:55;;;;;;;5.65;2.75;;;-6.20;99.90;;;;;;5052295;28;20039;-82
2022/12/18 04:26:21;;;;;;;4.88;2.88;;;-6.20;99.90;;;;;;5060301;28;20040;-82
2022/12/18 04:28:47;;;;;;;4.35;2.67;;;-6.30;99.90;;;;;;5051902;28;20486;-82
2022/12/18 04:31:12;;;;;;;6.07;3.20;;;-6.20;99.90;;;;;;5052294;28;20029;-82
2022/12/18 04:33:38;;;;;;;10.10;3.38;;;-6.20;99.90;;;;;;5055536;28;20071;-82
2022/12/18 04:36:04;;;;;;;6.97;2.83;;;-6.20;99.90;;;;;;5053306;28;20429;-82
2022/12/18 04:38:30;;;;;;;3.85;3.33;;;-6.20;99.90;;;;;;5046887;28;20034;-82
2022/12/18 04:40:59;;;;;;;7.50;3.65;;;-6.20;99.90;;;;;;5041609;28;20055;-82
2022/12/18 04:43:24;;;;;;;11.68;4.85;;;-6.20;99.90;;;;;;5039666;28;20429;-83
2022/12/18 04:45:50;;;;;;;4.75;3.38;;;-6.20;99.90;;;;;;5056144;28;20035;-82
2022/12/18 04:48:15;;;;;;;8.35;4.45;;;-6.20;99.90;;;;;;5055667;28;20037;-81
2022/12/18 04:50:41;;;;;;;7.70;4.13;;;-6.20;99.90;;;;;;5046976;28;20247;-82
2022/12/18 04:53:10;;;;;;;8.18;4.57;;;-6.20;99.90;;;;;;5049823;28;20032;-80
2022/12/18 04:55:35;;;;;;;6.28;4.15;;;-6.20;99.90;;;;;;5050486;28;20087;-82
2022/12/18 04:58:01;;;;;;;11.07;4.82;;;-6.20;99.90;;;;;;5054240;28;20431;-82
2022/12/18 05:00:27;;;;;;;8.38;4.78;;;-6.20;99.90;;;;;;5054753;28;20038;-82
2022/12/18 05:02:52;;;;;;;7.82;4.63;;;-6.20;99.90;;;;;;5048315;28;20083;-82
2022/12/18 05:05:18;;;;;;;8.25;5.20;;;-6.30;99.90;;;;;;5049143;28;20082;-82
2022/12/18 05:07:43;;;;;;;8.02;4.97;;;-6.30;99.90;;;;;;5040374;28;20052;-82
2022/12/18 05:10:09;;;;;;;7.93;5.25;;;-6.30;99.90;;;;;;5053027;28;20028;-82
2022/12/18 05:12:57;;;;;;;6.63;4.53;;;-6.30;99.90;;;;;;5059584;28;20173;-82
2022/12/18 05:15:20;;;;;;;9.18;3.88;;;-6.30;99.90;;;;;;5053815;28;20055;-82
2022/12/18 05:17:46;;;;;;;7.97;3.70;;;-6.40;99.90;;;;;;5057007;28;20412;-82
2022/12/18 05:20:11;;;;;;;11.32;3.40;;;-6.40;99.90;;;;;;5052265;28;20017;-82
2022/12/18 05:22:37;;;;;;;12.27;3.90;;;-6.40;99.90;;;;;;5049991;28;20024;-82
2022/12/18 05:25:03;;;;;;;8.43;3.60;;;-6.50;99.90;;;;;;5041584;28;20039;-82
2022/12/18 05:27:28;;;;;;;7.35;3.88;;;-6.40;99.90;;;;;;5054609;28;20040;-82
2022/12/18 05:29:54;;;;;;;4.93;3.60;;;-6.40;99.90;;;;;;5049668;28;20485;-82
2022/12/18 05:32:19;;;;;;;7.28;3.60;;;-6.40;99.90;;;;;;5045591;28;20101;-82
2022/12/18 05:34:45;;;;;;;12.40;4.38;;;-6.40;99.90;;;;;;5050826;28;20058;-82
2022/12/18 05:37:11;;;;;;;5.10;3.45;;;-6.40;99.90;;;;;;5044391;28;20033;-82
2022/12/18 05:39:36;;;;;;;4.75;3.78;;;-6.50;99.90;;;;;;5048709;28;20100;-82
2022/12/18 05:42:02;;;;;;;3.83;3.42;;;-6.50;99.90;;;;;;5044494;28;20061;-80
2022/12/18 05:44:28;;;;;;;8.52;3.90;;;-6.60;99.90;;;;;;5040820;28;20942;-82
2022/12/18 05:46:53;;;;;;;4.32;3.90;;;-6.60;99.90;;;;;;5049188;28;20182;-82
2022/12/18 05:49:19;;;;;;;5.90;3.83;;;-6.60;99.90;;;;;;5053015;28;20033;-81
2022/12/18 05:51:45;;;;;;;14.43;4.35;;;-6.60;99.90;;;;;;5051466;28;20044;-82
2022/12/18 05:54:11;;;;;;;9.80;4.63;;;-6.60;99.90;;;;;;5057692;28;20061;-82
2022/12/18 05:56:37;;;;;;;7.15;4.38;;;-6.60;99.90;;;;;;5047658;28;20055;-82
2022/12/18 05:59:02;;;;;;;7.20;3.70;;;-6.60;99.90;;;;;;5038837;28;20471;-82
2022/12/18 06:01:28;;;;;;;6.22;3.83;;;-6.60;99.90;;;;;;5055411;28;20055;-82
2022/12/18 06:03:55;;;;;;;13.20;4.10;;;-6.60;99.90;;;;;;5050210;28;20047;-81
2022/12/18 06:06:24;;;;;;;6.93;3.92;;;-6.60;99.90;;;;;;5048535;28;20040;-82
2022/12/18 06:08:51;;;;;;;12.80;4.60;;;-6.50;99.90;;;;;;5051568;28;20043;-82
2022/12/18 06:11:27;;;;;;;3.78;2.92;;;-6.50;99.90;;;;;;5050016;28;20025;-82
2022/12/18 06:13:54;;;;;;;4.68;2.70;;;-6.70;99.90;;;;;;5050234;28;20033;-82
2022/12/18 06:16:20;;;;;;;5.13;3.03;;;-6.60;99.90;;;;;;5050307;28;20036;-82
2022/12/18 06:18:45;;;;;;;4.75;2.80;;;-6.70;99.90;;;;;;5059362;28;20016;-82
2022/12/18 06:21:13;;;;;;;8.00;3.35;;;-6.70;99.90;;;;;;5054191;28;20489;-82
2022/12/18 06:23:38;;;;;;;4.43;3.42;;;-6.60;99.90;;;;;;5048443;28;20036;-82
2022/12/18 06:26:09;;;;;;;5.60;3.08;;;-6.70;99.90;;;;;;5053560;28;20033;-82
2022/12/18 06:28:35;;;;;;;10.75;3.55;;;-6.70;99.90;;;;;;5042693;28;20040;-82
2022/12/18 06:31:03;;;;;;;5.38;2.95;;;-6.70;99.90;;;;;;5051671;28;20032;-82
2022/12/18 06:33:29;;;;;;;6.95;3.10;;;-6.70;99.90;;;;;;5056360;28;20024;-82
2022/12/18 06:36:00;;;;;;;3.03;2.72;;;-6.70;99.90;;;;;;5042882;28;20497;-82
2022/12/18 06:38:26;;;;;;;6.82;3.83;;;-6.70;99.90;;;;;;5045583;28;20040;-82
2022/12/18 06:40:51;;;;;;;13.25;6.38;;;-6.70;99.90;;;;;;5048815;28;20071;-82
2022/12/18 06:43:17;;;;;;;13.00;6.77;;;-6.70;99.90;;;;;;5051848;28;20035;-82
2022/12/18 06:45:43;;;;;;;13.50;6.38;;;-6.70;99.90;;;;;;5046763;28;20029;-83
2022/12/18 06:48:08;;;;;;;14.07;5.87;;;-6.60;99.90;;;;;;5056563;28;20046;-83
2022/12/18 06:50:34;;;;;;;12.13;6.07;;;-6.60;99.90;;;;;;5056620;28;20031;-82
2022/12/18 06:53:00;;;;;;;10.77;5.75;;;-6.60;99.90;;;;;;5052968;28;20393;-83
2022/12/18 06:55:26;;;;;;;10.98;5.15;;;-6.60;99.90;;;;;;5049226;28;20024;-83
2022/12/18 06:57:51;;;;;;;9.82;5.30;;;-6.60;99.90;;;;;;5046968;28;20048;-83
2022/12/18 07:00:17;;;;;;;9.93;4.90;;;-6.60;99.90;;;;;;5054955;28;20025;-83
2022/12/18 07:02:43;;;;;;;11.87;4.80;;;-6.60;99.90;;;;;;5044320;28;20417;-82
2022/12/18 07:05:09;;;;;;;10.60;4.73;;;-6.50;99.90;;;;;;5041233;28;20049;-82
2022/12/18 07:07:35;;;;;;;10.93;4.67;;;-6.50;99.90;;;;;;5045204;28;20049;-83
2022/12/18 07:10:02;;;;;;;14.10;5.18;;;-6.40;99.90;;;;;;5043248;28;20497;-83
2022/12/18 07:12:28;;;;;;;16.02;6.43;;;-6.40;99.90;;;;;;5037354;28;20032;-82
2022/12/18 07:14:53;;;;;;;9.70;6.25;;;-6.30;99.90;;;;;;5046948;28;20032;-83
2022/12/18 07:17:19;;;;;;;16.70;5.82;;;-6.30;99.90;;;;;;5047320;28;20055;-82
2022/12/18 07:19:44;;;;;;;17.27;6.75;;;-6.30;99.90;;;;;;5047881;28;20036;-83
2022/12/18 07:22:10;;;;;;;10.80;6.30;;;-6.30;99.90;;;;;;5052097;28;20032;-83
2022/12/18 07:24:37;;;;;;;15.75;6.85;;;-6.20;99.90;;;;;;5057109;28;20115;-83
2022/12/18 07:27:02;;;;;;;15.57;6.60;;;-6.20;99.90;;;;;;5048404;28;20046;-82
2022/12/18 07:29:28;;;;;;;14.50;6.57;;;-6.20;99.90;;;;;;5044328;28;20032;-83
2022/12/18 07:31:54;;;;;;;9.13;5.57;;;-6.20;99.90;;;;;;5051402;28;20401;-82
2022/12/18 07:34:19;;;;;;;12.77;7.05;;;-6.30;99.90;;;;;;5053601;28;20397;-82
2022/12/18 07:36:45;;;;;;;17.05;8.25;;;-6.30;99.90;;;;;;5048590;28;20029;-82
2022/12/18 07:39:11;;;;;;;20.70;10.02;;;-6.30;99.90;;;;;;5058073;28;20595;-82
2022/12/18 07:41:37;;;;;;;19.48;9.77;;;-6.30;99.90;;;;;;5056383;28;20025;-83
2022/12/18 07:44:03;;;;;;;16.00;7.25;;;-6.30;99.90;;;;;;5051505;28;20030;-83
2022/12/18 07:46:28;;;;;;;16.83;8.15;;;-6.30;99.90;;;;;;5042816;28;20108;-83
2022/12/18 07:48:54;;;;;;;18.10;7.88;;;-6.40;99.90;;;;;;5046163;28;20048;-83
2022/12/18 07:51:19;;;;;;;12.00;6.05;;;-6.40;99.90;;;;;;5055661;28;20033;-83
2022/12/18 07:53:45;;;;;;;14.07;6.10;;;-6.50;99.90;;;;;;5044607;28;20162;-83
2022/12/18 07:56:13;;;;;;;11.90;6.07;;;-6.50;99.90;;;;;;5046384;28;20037;-83
2022/12/18 07:58:38;;;;;;;10.20;6.28;;;-6.50;99.90;;;;;;5051654;28;20033;-82
2022/12/18 08:01:08;;;;;;;6.47;5.53;;;-6.50;99.90;;;;;;5038478;28;20034;-83
2022/12/18 08:03:34;;;;;;;15.55;6.10;;;-6.50;99.90;;;;;;5055960;28;20028;-83
2022/12/18 08:06:04;;;;;;;8.73;5.50;;;-6.50;99.90;;;;;;5046301;28;20489;-83
2022/12/18 08:08:30;;;;;;;9.43;5.55;;;-6.50;99.90;;;;;;5054316;28;20501;-83
2022/12/18 08:10:56;;;;;;;8.07;5.47;;;-6.50;99.90;;;;;;5044217;28;20068;-82
2022/12/18 08:13:25;;;;;;;11.95;5.22;;;-6.50;99.90;;;;;;5056133;28;20043;-83
2022/12/18 08:16:05;;;;;;;8.52;5.22;;;-6.50;99.90;;;;;;5047283;28;20029;-83
2022/12/18 08:18:33;;;;;;;8.90;5.13;;;-6.40;99.90;;;;;;5074094;28;20036;-83
2022/12/18 08:21:18;;;;;;;6.15;4.63;;;-6.50;99.90;;;;;;5052516;28;20039;-83
2022/12/18 08:23:44;;;;;;;8.32;4.05;;;-6.40;99.90;;;;;;5038328;28;20513;-83
2022/12/18 08:26:13;;;;;;;8.48;3.72;;;-6.40;99.90;;;;;;5056450;28;20040;-83
2022/12/18 08:28:40;;;;;;;7.80;3.30;;;-6.40;99.90;;;;;;5049426;28;20452;-83
2022/12/18 08:31:07;;;;;;;12.02;3.90;;;-6.30;99.90;;;;;;5040981;28;20423;-82
2022/12/18 08:33:33;;;;;;;6.28;4.07;;;-6.20;99.90;;;;;;5045485;28;20064;-82
2022/12/18 08:36:00;;;;;;;7.57;4.47;;;-6.10;99.90;;;;;;5055458;28;20056;-83
2022/12/18 08:38:26;;;;;;;8.13;4.72;;;-6.00;99.90;;;;;;5049912;28;20040;-83
2022/12/18 08:41:07;;;;;;;7.35;4.82;;;-5.90;99.90;;;;;;5045677;28;20393;-83
2022/12/18 08:46:19;;;;;;;11.88;4.75;;;-5.70;99.90;;;;;;5045858;28;20040;-83
2022/12/18 08:48:45;;;;;;;15.52;5.13;;;-5.70;99.90;;;;;;5044162;28;20516;-83
2022/12/18 08:51:10;;;;;;;5.45;4.25;;;-5.60;99.90;;;;;;5050693;28;20026;-83
2022/12/18 08:53:39;;;;;;;10.63;4.93;;;-5.50;99.90;;;;;;5042271;28;20025;-83
2022/12/18 08:56:05;;;;;;;8.70;5.03;;;-5.50;99.90;;;;;;5053119;28;20355;-84
2022/12/18 08:58:31;;;;;;;13.63;5.95;;;-5.40;99.90;;;;;;5048188;28;20025;-83
2022/12/18 09:01:03;;;;;;;14.45;6.65;;;-5.40;99.90;;;;;;5045116;28;20025;-83
2022/12/18 09:03:29;;;;;;;8.15;5.75;;;-5.40;99.90;;;;;;5041745;28;20112;-82
2022/12/18 09:05:55;;;;;;;10.18;5.90;;;-5.40;99.90;;;;;;5044575;28;20474;-83
2022/12/18 09:08:20;;;;;;;28.85;11.95;;;-5.30;99.90;;;;;;5041771;28;20037;-83
2022/12/18 09:10:49;;;;;;;20.40;11.10;;;-5.20;99.90;;;;;;5043545;28;20029;-83
2022/12/18 09:13:16;;;;;;;18.05;9.02;;;-5.20;99.90;;;;;;5048410;28;20033;-82
2022/12/18 09:15:47;;;;;;;14.73;8.32;;;-5.20;99.90;;;;;;5041840;28;20032;-83
2022/12/18 09:18:14;;;;;;;15.05;7.20;;;-5.10;99.90;;;;;;5035901;28;20447;-83
2022/12/18 09:20:39;;;;;;;13.25;6.97;;;-5.00;99.90;;;;;;5043619;28;20634;-83
2022/12/18 09:23:06;;;;;;;15.30;7.97;;;-4.90;99.90;;;;;;5051938;28;20033;-83
2022/12/18 09:25:35;;;;;;;18.75;8.68;;;-4.80;99.90;;;;;;5038517;28;20233;-83
2022/12/18 09:28:02;;;;;;;11.93;7.43;;;-4.60;99.90;;;;;;5045832;28;20047;-82
2022/12/18 09:30:28;;;;;;;13.85;8.57;;;-4.60;99.90;;;;;;5046108;28;20407;-83
2022/12/18 09:32:53;;;;;;;13.38;7.72;;;-4.60;99.90;;;;;;5056136;28;20086;-82
2022/12/18 09:35:19;;;;;;;42.90;13.52;;;-4.50;99.90;;;;;;5049245;28;20481;-82
2022/12/18 09:37:44;;;;;;;33.47;13.35;;;-4.40;99.90;;;;;;5046159;28;20067;-83
2022/12/18 09:40:19;;;;;;;30.70;13.65;;;-4.30;99.90;;;;;;5038262;28;20501;-83
2022/12/18 09:42:53;;;;;;;29.52;13.05;;;-4.30;99.90;;;;;;5042160;28;20030;-82
2022/12/18 09:45:19;;;;;;;30.02;10.77;;;-4.20;99.90;;;;;;5049207;28;20065;-83
2022/12/18 09:47:47;;;;;;;25.70;11.45;;;-4.20;99.90;;;;;;5034528;28;20494;-82
2022/12/18 09:50:34;;;;;;;35.60;13.45;;;-4.10;99.90;;;;;;5050369;28;20029;-83
2022/12/18 09:53:09;;;;;;;50.38;17.65;;;-4.10;99.90;;;;;;5041175;28;20214;-82
2022/12/18 09:55:39;;;;;;;63.40;21.33;;;-4.10;99.90;;;;;;5035847;28;20105;-83
2022/12/18 09:58:31;;;;;;;37.35;15.18;;;-4.00;99.90;;;;;;5044886;28;20053;-82
2022/12/18 10:00:57;;;;;;;29.83;12.18;;;-3.90;99.90;;;;;;5041321;28;20041;-83
2022/12/18 10:03:23;;;;;;;31.38;12.02;;;-3.90;99.90;;;;;;5055153;28;20029;-83
2022/12/18 10:06:07;;;;;;;31.77;11.10;;;-3.80;99.90;;;;;;5044996;28;20047;-83
2022/12/18 10:08:44;;;;;;;18.58;8.27;;;-3.90;99.90;;;;;;5040274;28;20115;-83
2022/12/18 10:11:30;;;;;;;19.70;10.38;;;-3.90;99.90;;;;;;5043056;28;20112;-83
2022/12/18 10:14:02;;;;;;;;;;;-3.90;99.90;;;;;;5053172;28;20035;-83
2022/12/18 10:16:37;;;;;;;22.42;9.75;;;-3.80;99.90;;;;;;5049398;28;20000;-83
2022/12/18 10:19:32;;;;;;;17.48;7.97;;;-3.70;99.90;;;;;;5035588;28;20483;-82
2022/12/18 10:22:23;;;;;;;8.23;3.22;;;-3.60;99.90;;;;;;5052009;28;20447;-81
2022/12/18 10:25:14;;;;;;;11.70;3.28;;;-3.40;99.90;;;;;;5050183;28;20031;-81
2022/12/18 10:27:40;;;;;;;9.25;3.17;;;-3.00;99.90;;;;;;5045567;28;20036;-82
2022/12/18 10:30:15;;;;;;;4.00;2.70;;;-2.70;99.90;;;;;;5047855;28;20117;-81
2022/12/18 10:32:41;;;;;;;10.00;3.13;;;-2.50;99.90;;;;;;5032212;28;20025;-82
2022/12/18 10:35:25;;;;;;;5.32;3.03;;;-2.30;99.90;;;;;;5045500;28;20052;-81
2022/12/18 10:38:10;;;;;;;11.70;3.03;;;-2.00;99.90;;;;;;5048671;28;20489;-81
2022/12/18 10:40:48;;;;;;;17.17;3.20;;;-1.80;99.90;;;;;;5047554;28;20100;-81
2022/12/18 10:43:16;;;;;;;7.43;2.85;;;-1.70;99.90;;;;;;5036956;28;20112;-81
2022/12/18 10:45:57;;;;;;;6.82;2.92;;;-1.50;99.90;;;;;;5055286;28;20039;-82
2022/12/18 10:48:23;;;;;;;9.68;2.50;;;-1.50;99.90;;;;;;5041384;28;20032;-83
2022/12/18 10:50:51;;;;;;;5.32;2.60;;;-1.40;99.90;;;;;;5047131;28;20066;-82
2022/12/18 10:53:29;;;;;;;8.48;2.58;;;-1.20;99.90;;;;;;5060288;28;20122;-82
2022/12/18 10:55:58;;;;;;;3.08;2.10;;;-1.20;99.90;;;;;;5055535;28;20035;-82
2022/12/18 10:58:29;;;;;;;11.50;2.47;;;-1.10;99.90;;;;;;5040595;28;20435;-81
2022/12/18 11:01:03;;;;;;;7.50;2.58;;;-1.10;99.90;;;;;;5052731;28;20024;-82
2022/12/18 11:03:32;;;;;;;20.70;10.45;;;-0.90;99.90;;;;;;5047813;28;20037;-82
2022/12/18 11:06:07;;;;;;;26.90;11.40;;;-0.90;99.90;;;;;;5057510;28;20105;-81
2022/12/18 11:08:33;;;;;;;35.93;16.33;;;-1.00;99.90;;;;;;5056777;28;20060;-79
2022/12/18 11:10:59;;;;;;;51.72;21.63;;;-1.10;99.90;;;;;;5050765;28;20492;-81
2022/12/18 11:13:27;;;;;;;8.02;3.50;;;-1.20;99.90;;;;;;5056112;28;20017;-82
2022/12/18 11:15:53;;;;;;;21.05;9.35;;;-1.20;99.90;;;;;;5049794;28;20033;-80
2022/12/18 11:18:22;;;;;;;13.25;6.10;;;-1.20;99.90;;;;;;5033662;28;20048;-81
2022/12/18 11:21:00;;;;;;;20.85;9.35;;;-1.10;99.90;;;;;;5048440;28;20033;-81
2022/12/18 11:23:27;;;;;;;11.13;5.47;;;-1.00;99.90;;;;;;5045414;28;20025;-81
2022/12/18 11:25:56;;;;;;;11.60;4.38;;;-1.00;99.90;;;;;;5045900;28;20105;-80
2022/12/18 11:28:45;;;;;;;14.02;6.15;;;-0.90;99.90;;;;;;5043289;28;20447;-81
2022/12/18 11:31:28;;;;;;;16.73;6.63;;;-0.90;99.90;;;;;;5040093;28;20036;-80
2022/12/18 11:34:24;;;;;;;10.38;5.72;;;-0.80;99.90;;;;;;5045818;28;20091;-81
2022/12/18 11:36:50;;;;;;;;;;;-0.80;99.90;;;;;;5052377;28;20029;-80
2022/12/18 11:39:19;;;;;;;;;;;-0.80;99.90;;;;;;5060935;28;19915;-80
2022/12/18 11:42:11;;;;;;;3.45;2.47;;;-0.70;99.90;;;;;;5043902;28;19985;-81
2022/12/18 11:44:48;;;;;;;4.25;2.58;;;-0.70;99.90;;;;;;5051648;28;20028;-81
2022/12/18 11:47:19;;;;;;;6.22;2.70;;;-0.70;99.90;;;;;;5053324;28;20045;-81
2022/12/18 11:49:49;;;;;;;8.02;2.80;;;-0.70;99.90;;;;;;5055041;28;20378;-81
2022/12/18 11:52:26;;;;;;;4.78;2.40;;;-0.60;99.90;;;;;;5058913;28;20108;-81
2022/12/18 11:55:00;;;;;;;6.00;2.83;;;-0.60;99.90;;;;;;5046298;28;20134;-80
2022/12/18 11:57:54;;;;;;;7.22;2.33;;;-0.60;99.90;;;;;;5053954;28;20028;-79
2022/12/18 12:00:21;;;;;;;4.68;2.40;;;-0.60;99.90;;;;;;5042840;28;20516;-80
2022/12/18 12:03:26;;;;;;;7.13;2.90;;;-0.50;99.90;;;;;;5053124;28;20037;-80
2022/12/18 12:06:07;;;;;;;7.53;3.17;;;-0.50;99.90;;;;;;5034996;28;20080;-80
2022/12/18 12:08:48;;;;;;;5.93;2.83;;;-0.50;99.90;;;;;;5049138;28;20194;-80
2022/12/18 12:11:20;;;;;;;6.93;3.83;;;-0.40;99.90;;;;;;5055377;28;20037;-79
2022/12/18 12:14:13;;;;;;;6.07;3.08;;;-0.40;99.90;;;;;;5036080;28;20053;-79
2022/12/18 12:16:44;;;;;;;7.30;3.30;;;-0.50;99.90;;;;;;5042300;28;20068;-80
2022/12/18 12:19:53;;;;;;;7.90;2.88;;;-0.50;99.90;;;;;;5040672;28;20449;-79
2022/12/18 12:22:35;;;;;;;20.60;11.68;;;-0.50;99.90;;;;;;5051877;28;20485;-80
2022/12/18 12:25:23;;;;;;;24.33;13.57;;;-0.40;99.90;;;;;;5050919;28;20025;-80
2022/12/18 12:28:15;;;;;;;27.15;13.48;;;-0.40;99.90;;;;;;5046342;28;20043;-79
2022/12/18 12:30:44;;;;;;;20.08;11.25;;;-0.40;99.90;;;;;;5044900;28;20033;-80
2022/12/18 12:33:41;;;;;;;22.08;12.48;;;-0.40;99.90;;;;;;5041095;28;20566;-80
2022/12/18 12:36:21;;;;;;;30.23;12.32;;;-0.50;99.90;;;;;;5047884;28;20029;-80
2022/12/18 12:38:54;;;;;;;25.65;13.20;;;-0.50;99.90;;;;;;5056445;28;20036;-80
2022/12/18 12:44:28;;;;;;;24.63;12.80;;;-0.60;99.90;;;;;;5058728;28;20040;-79
2022/12/18 12:46:59;;;;;;;31.17;11.93;;;-0.60;99.90;;;;;;5053007;28;20520;-80
2022/12/18 12:49:28;;;;;;;24.67;11.05;;;-0.70;99.90;;;;;;5046477;28;20102;-80
2022/12/18 12:52:16;;;;;;;21.40;11.20;;;-0.70;99.90;;;;;;5058015;28;20024;-79
2022/12/18 12:54:44;;;;;;;17.13;11.02;;;-0.70;99.90;;;;;;5056243;28;20465;-80
2022/12/18 12:57:36;;;;;;;23.45;11.73;;;-0.80;99.90;;;;;;5048321;28;20037;-79
2022/12/18 13:00:09;;;;;;;17.90;9.55;;;-0.70;99.90;;;;;;5054132;28;20028;-79
2022/12/18 13:03:15;;;;;;;21.33;10.40;;;-0.80;99.90;;;;;;5055783;28;20492;-80
2022/12/18 13:05:51;;;;;;;20.13;10.93;;;-0.90;99.90;;;;;;5038653;28;20076;-79
2022/12/18 13:08:29;;;;;;;20.70;11.18;;;-0.90;99.90;;;;;;5043402;28;20039;-80
2022/12/18 13:13:52;;;;;;;24.63;13.00;;;-1.00;99.90;;;;;;5049920;28;20035;-80